Time,TemperatureF,DewpointF,PressureIn,WindDirection,WindDirectionDegrees,WindSpeedMPH,WindSpeedGustMPH,Humidity,HourlyPrecipIn,Conditions,Clouds,dailyrainin,SoftwareType,DateUTC
2013-03-16 00:15:00,41.8,23.0,29.71,WNW,290,3.0,-999.0,47,-99.99,,,0.00,weatherlink.com 1.10,2013-03-16 06:15:00,
2013-03-16 00:30:00,39.5,23.0,29.69,WNW,290,4.0,-999.0,51,-99.99,,,0.00,weatherlink.com 1.10,2013-03-16 06:30:00,
2013-03-16 00:44:00,38.8,23.0,29.70,WNW,290,2.0,-999.0,54,-99.99,,,0.00,weatherlink.com 1.10,2013-03-16 06:44:00,
2013-03-16 01:00:00,38.0,23.0,29.70,NNW,347,7.0,-999.0,56,-99.99,,,0.00,weatherlink.com 1.10,2013-03-16 07:00:00,
2013-03-16 01:15:00,38.3,24.0,29.71,NNW,348,0.0,-999.0,56,-99.99,,,0.00,weatherlink.com 1.10,2013-03-16 07:15:00,
2013-03-16 01:30:00,37.3,22.0,29.68,NNW,348,0.0,-999.0,55,-99.99,,,0.00,weatherlink.com 1.10,2013-03-16 07:30:00,
2013-03-16 01:45:00,36.5,22.0,29.70,NNW,348,0.0,-999.0,56,-99.99,,,0.00,weatherlink.com 1.10,2013-03-16 07:45:00,
2013-03-16 02:00:00,36.0,22.0,29.70,NNW,348,0.0,-999.0,56,-99.99,,,0.00,weatherlink.com 1.10,2013-03-16 08:00:00,
2013-03-16 02:15:00,36.3,22.0,29.69,NNW,348,0.0,-999.0,56,-99.99,,,0.00,weatherlink.com 1.10,2013-03-16 08:15:00,
2013-03-16 02:30:00,35.8,22.0,29.69,NNW,348,0.0,-999.0,57,-99.99,,,0.00,weatherlink.com 1.10,2013-03-16 08:30:00,
2013-03-16 02:45:00,36.2,23.0,29.69,NNW,348,0.0,-999.0,59,-99.99,,,0.00,weatherlink.com 1.10,2013-03-16 08:45:00,
2013-03-16 03:00:00,36.5,23.0,29.68,NNW,348,0.0,-999.0,58,-99.99,,,0.00,weatherlink.com 1.10,2013-03-16 09:00:00,
2013-03-16 03:15:00,36.9,22.0,29.67,NNW,348,2.0,-999.0,56,-99.99,,,0.00,weatherlink.com 1.10,2013-03-16 09:15:00,
2013-03-16 03:30:00,36.3,23.0,29.67,NNW,348,0.0,-999.0,58,-99.99,,,0.00,weatherlink.com 1.10,2013-03-16 09:30:00,
2013-03-16 03:45:00,36.5,24.0,29.68,NNW,348,0.0,-999.0,60,-99.99,,,0.00,weatherlink.com 1.10,2013-03-16 09:45:00,
2013-03-16 04:00:00,37.3,23.0,29.67,NE,37,4.0,-999.0,56,-99.99,,,0.00,weatherlink.com 1.10,2013-03-16 10:00:00,
2013-03-16 04:15:00,37.0,22.0,29.67,NE,36,2.0,-999.0,56,-99.99,,,0.00,weatherlink.com 1.10,2013-03-16 10:15:00,
2013-03-16 04:30:00,37.6,23.0,29.67,NE,36,1.0,-999.0,55,-99.99,,,0.00,weatherlink.com 1.10,2013-03-16 10:30:00,
2013-03-16 04:45:00,37.2,23.0,29.66,NE,36,2.0,-999.0,56,-99.99,,,0.00,weatherlink.com 1.10,2013-03-16 10:45:00,
2013-03-16 05:00:00,36.9,23.0,29.67,NE,36,0.0,-999.0,57,-99.99,,,0.00,weatherlink.com 1.10,2013-03-16 11:00:00,
2013-03-16 05:15:00,36.5,23.0,29.66,NE,36,0.0,-999.0,58,-99.99,,,0.00,weatherlink.com 1.10,2013-03-16 11:15:00,
2013-03-16 05:31:00,36.5,23.0,29.65,NE,36,0.0,-999.0,59,-99.99,,,0.00,weatherlink.com 1.10,2013-03-16 11:31:00,
2013-03-16 05:45:00,36.2,23.0,29.65,NE,36,0.0,-999.0,60,-99.99,,,0.00,weatherlink.com 1.10,2013-03-16 11:45:00,
2013-03-16 06:00:00,36.2,24.0,29.66,NE,36,0.0,-999.0,61,-99.99,,,0.00,weatherlink.com 1.10,2013-03-16 12:00:00,
2013-03-16 06:15:00,36.2,24.0,29.69,NE,36,0.0,-999.0,62,-99.99,,,0.00,weatherlink.com 1.10,2013-03-16 12:15:00,
2013-03-16 06:46:00,36.8,24.0,29.67,NE,37,2.0,-999.0,59,-99.99,,,0.00,weatherlink.com 1.10,2013-03-16 12:46:00,
2013-03-16 07:01:00,36.0,24.0,29.68,NE,36,3.0,-999.0,63,-99.99,,,0.00,weatherlink.com 1.10,2013-03-16 13:01:00,
2013-03-16 07:17:00,36.0,25.0,29.73,NE,36,2.0,-999.0,64,-99.99,,,0.00,weatherlink.com 1.10,2013-03-16 13:17:00,
2013-03-16 07:31:00,37.0,25.0,29.73,NE,36,0.0,-999.0,61,-99.99,,,0.00,weatherlink.com 1.10,2013-03-16 13:31:00,
2013-03-16 08:01:00,37.5,25.0,29.73,NE,35,0.0,-999.0,62,-99.99,,,0.00,weatherlink.com 1.10,2013-03-16 14:01:00,
2013-03-16 08:17:00,38.5,26.0,29.77,NE,35,2.0,-999.0,62,-99.99,,,0.00,weatherlink.com 1.10,2013-03-16 14:17:00,
2013-03-16 08:32:00,39.8,26.0,29.76,NE,35,3.0,-999.0,58,-99.99,,,0.00,weatherlink.com 1.10,2013-03-16 14:32:00,
2013-03-16 08:46:00,41.2,26.0,29.75,NE,35,1.0,-999.0,56,-99.99,,,0.00,weatherlink.com 1.10,2013-03-16 14:46:00,
2013-03-16 09:01:00,42.8,27.0,29.75,NE,35,1.0,-999.0,53,-99.99,,,0.00,weatherlink.com 1.10,2013-03-16 15:01:00,
2013-03-16 09:18:00,44.6,28.0,29.75,NE,35,2.0,-999.0,52,-99.99,,,0.00,weatherlink.com 1.10,2013-03-16 15:18:00,
2013-03-16 09:31:00,45.7,27.0,29.73,NE,36,2.0,-999.0,49,-99.99,,,0.00,weatherlink.com 1.10,2013-03-16 15:31:00,
2013-03-16 09:47:00,47.0,27.0,29.73,NE,36,1.0,-999.0,46,-99.99,,,0.00,weatherlink.com 1.10,2013-03-16 15:47:00,
2013-03-16 10:03:00,49.5,26.0,29.72,NE,36,0.0,-999.0,41,-99.99,,,0.00,weatherlink.com 1.10,2013-03-16 16:03:00,
2013-03-16 10:18:00,53.2,27.0,29.72,NE,36,0.0,-999.0,36,-99.99,,,0.00,weatherlink.com 1.10,2013-03-16 16:18:00,
2013-03-16 10:34:00,55.7,25.0,29.70,NE,36,0.0,-999.0,30,-99.99,,,0.00,weatherlink.com 1.10,2013-03-16 16:34:00,
2013-03-16 10:47:00,58.4,25.0,29.68,ENE,66,0.0,-999.0,28,-99.99,,,0.00,weatherlink.com 1.10,2013-03-16 16:47:00,
2013-03-16 11:03:00,59.6,24.0,29.67,WNW,300,0.0,-999.0,26,-99.99,,,0.00,weatherlink.com 1.10,2013-03-16 17:03:00,
2013-03-16 11:18:00,59.5,24.0,29.68,SW,236,1.0,-999.0,26,-99.99,,,0.00,weatherlink.com 1.10,2013-03-16 17:18:00,
2013-03-16 11:33:00,60.9,25.0,29.67,SW,229,5.0,-999.0,25,-99.99,,,0.00,weatherlink.com 1.10,2013-03-16 17:33:00,
2013-03-16 11:49:00,61.6,23.0,29.66,SW,229,2.0,-999.0,23,-99.99,,,0.00,weatherlink.com 1.10,2013-03-16 17:49:00,
2013-03-16 12:05:00,61.8,23.0,29.65,WSW,251,3.0,-999.0,23,-99.99,,,0.00,weatherlink.com 1.10,2013-03-16 18:05:00,
2013-03-16 12:19:00,63.4,24.0,29.67,West,265,7.0,-999.0,22,-99.99,,,0.00,weatherlink.com 1.10,2013-03-16 18:19:00,
2013-03-16 12:35:00,63.7,23.0,29.66,West,261,7.0,-999.0,21,-99.99,,,0.00,weatherlink.com 1.10,2013-03-16 18:35:00,
2013-03-16 12:50:00,64.2,23.0,29.65,SW,224,5.0,-999.0,21,-99.99,,,0.00,weatherlink.com 1.10,2013-03-16 18:50:00,
2013-03-16 13:04:00,64.7,24.0,29.64,WSW,240,7.0,-999.0,21,-99.99,,,0.00,weatherlink.com 1.10,2013-03-16 19:04:00,
2013-03-16 13:19:00,65.3,23.0,29.64,WSW,250,10.0,-999.0,20,-99.99,,,0.00,weatherlink.com 1.10,2013-03-16 19:19:00,
2013-03-16 13:34:00,66.4,24.0,29.62,West,262,7.0,-999.0,20,-99.99,,,0.00,weatherlink.com 1.10,2013-03-16 19:34:00,
2013-03-16 13:50:00,66.1,24.0,29.61,WSW,243,14.0,-999.0,20,-99.99,,,0.00,weatherlink.com 1.10,2013-03-16 19:50:00,
2013-03-16 14:21:00,66.4,24.0,29.59,West,276,11.0,-999.0,20,-99.99,,,0.00,weatherlink.com 1.10,2013-03-16 20:21:00,
2013-03-16 14:50:00,66.9,26.0,29.58,WNW,291,5.0,-999.0,21,-99.99,,,0.00,weatherlink.com 1.10,2013-03-16 20:50:00,
2013-03-16 15:05:00,65.8,30.0,29.58,West,273,23.0,-999.0,26,-99.99,,,0.00,weatherlink.com 1.10,2013-03-16 21:05:00,
2013-03-16 15:20:00,65.0,30.0,29.58,NW,325,6.0,-999.0,27,-99.99,,,0.00,weatherlink.com 1.10,2013-03-16 21:20:00,
2013-03-16 15:36:00,65.2,29.0,29.58,NW,320,11.0,-999.0,26,-99.99,,,0.00,weatherlink.com 1.10,2013-03-16 21:36:00,
2013-03-16 15:51:00,64.7,30.0,29.58,WNW,303,5.0,-999.0,27,-99.99,,,0.00,weatherlink.com 1.10,2013-03-16 21:51:00,
2013-03-16 16:07:00,65.2,28.0,29.58,WNW,302,12.0,-999.0,25,-99.99,,,0.00,weatherlink.com 1.10,2013-03-16 22:07:00,
2013-03-16 16:20:00,64.2,27.0,29.59,West,262,7.0,-999.0,24,-99.99,,,0.00,weatherlink.com 1.10,2013-03-16 22:20:00,
2013-03-16 16:51:00,62.9,28.0,29.59,West,269,11.0,-999.0,27,-99.99,,,0.00,weatherlink.com 1.10,2013-03-16 22:51:00,
2013-03-16 17:21:00,63.5,29.0,29.60,NW,307,5.0,-999.0,27,-99.99,,,0.00,weatherlink.com 1.10,2013-03-16 23:21:00,
2013-03-16 17:37:00,63.2,29.0,29.61,WNW,297,8.0,-999.0,27,-99.99,,,0.00,weatherlink.com 1.10,2013-03-16 23:37:00,
2013-03-16 17:52:00,63.1,28.0,29.61,WNW,290,11.0,-999.0,27,-99.99,,,0.00,weatherlink.com 1.10,2013-03-16 23:52:00,
2013-03-16 18:07:00,60.9,27.0,29.61,WNW,288,6.0,-999.0,27,-99.99,,,0.00,weatherlink.com 1.10,2013-03-17 00:07:00,
2013-03-16 18:36:00,59.0,26.0,29.64,NW,316,3.0,-999.0,28,-99.99,,,0.00,weatherlink.com 1.10,2013-03-17 00:36:00,
2013-03-16 18:52:00,58.6,26.0,29.64,NW,316,2.0,-999.0,29,-99.99,,,0.00,weatherlink.com 1.10,2013-03-17 00:52:00,
2013-03-16 19:07:00,58.7,25.0,29.65,West,263,11.0,-999.0,28,-99.99,,,0.00,weatherlink.com 1.10,2013-03-17 01:07:00,
2013-03-16 19:22:00,58.7,23.0,29.65,West,263,7.0,-999.0,25,-99.99,,,0.00,weatherlink.com 1.10,2013-03-17 01:22:00,
2013-03-16 19:38:00,57.3,24.0,29.65,WSW,247,10.0,-999.0,28,-99.99,,,0.00,weatherlink.com 1.10,2013-03-17 01:38:00,
2013-03-16 19:52:00,55.4,25.0,29.67,SW,231,4.0,-999.0,31,-99.99,,,0.00,weatherlink.com 1.10,2013-03-17 01:52:00,
2013-03-16 20:07:00,54.1,27.0,29.68,SW,231,6.0,-999.0,35,-99.99,,,0.00,weatherlink.com 1.10,2013-03-17 02:07:00,
2013-03-16 20:22:00,52.9,27.0,29.66,SW,230,0.0,-999.0,37,-99.99,,,0.00,weatherlink.com 1.10,2013-03-17 02:22:00,
2013-03-16 20:37:00,51.7,28.0,29.67,SW,230,2.0,-999.0,40,-99.99,,,0.00,weatherlink.com 1.10,2013-03-17 02:37:00,
2013-03-16 20:52:00,50.7,29.0,29.67,SW,230,5.0,-999.0,43,-99.99,,,0.00,weatherlink.com 1.10,2013-03-17 02:52:00,
2013-03-16 21:07:00,50.2,28.0,29.67,SW,231,1.0,-999.0,43,-99.99,,,0.00,weatherlink.com 1.10,2013-03-17 03:07:00,
2013-03-16 21:22:00,49.9,28.0,29.65,SW,232,5.0,-999.0,43,-99.99,,,0.00,weatherlink.com 1.10,2013-03-17 03:22:00,
2013-03-16 21:37:00,50.2,28.0,29.66,West,275,6.0,-999.0,43,-99.99,,,0.00,weatherlink.com 1.10,2013-03-17 03:37:00,
2013-03-16 21:52:00,50.2,28.0,29.66,West,274,4.0,-999.0,43,-99.99,,,0.00,weatherlink.com 1.10,2013-03-17 03:52:00,
2013-03-16 22:07:00,49.5,28.0,29.66,West,274,1.0,-999.0,44,-99.99,,,0.00,weatherlink.com 1.10,2013-03-17 04:07:00,
2013-03-16 22:22:00,47.0,28.0,29.60,West,274,0.0,-999.0,48,-99.99,,,0.00,weatherlink.com 1.10,2013-03-17 04:22:00,
2013-03-16 22:37:00,46.2,28.0,29.61,West,274,0.0,-999.0,49,-99.99,,,0.00,weatherlink.com 1.10,2013-03-17 04:37:00,
2013-03-16 22:52:00,45.4,28.0,29.62,West,274,0.0,-999.0,51,-99.99,,,0.00,weatherlink.com 1.10,2013-03-17 04:52:00,
2013-03-16 23:07:00,44.6,28.0,29.63,West,274,0.0,-999.0,52,-99.99,,,0.00,weatherlink.com 1.10,2013-03-17 05:07:00,
2013-03-16 23:22:00,43.9,28.0,29.62,West,274,0.0,-999.0,53,-99.99,,,0.00,weatherlink.com 1.10,2013-03-17 05:22:00,
2013-03-16 23:37:00,42.8,27.0,29.62,West,274,0.0,-999.0,54,-99.99,,,0.00,weatherlink.com 1.10,2013-03-17 05:37:00,
2013-03-16 23:52:00,38.6,25.0,29.63,West,274,0.0,-999.0,59,-99.99,,,0.00,weatherlink.com 1.10,2013-03-17 05:52:00,